createdAt,value
2018-09-12T00:00:32.527Z,81.10
2018-09-12T00:03:02.298Z,80.29
2018-09-12T00:05:30.700Z,81.50
2018-09-12T00:07:59.113Z,81.06
2018-09-12T00:10:27.483Z,80.48
2018-09-12T00:12:55.880Z,81.39
2018-09-12T00:15:24.260Z,80.83
2018-09-12T00:17:52.639Z,81.29
2018-09-12T00:20:21.091Z,81.65
2018-09-12T00:22:49.489Z,81.93
2018-09-12T00:25:17.947Z,81.46
2018-09-12T00:27:46.358Z,81.60
2018-09-12T00:30:14.809Z,81.79
2018-09-12T00:32:43.173Z,82.83
2018-09-12T00:35:11.577Z,82.46
2018-09-12T00:37:40.051Z,81.79
2018-09-12T00:40:08.921Z,81.61
2018-09-12T00:42:37.304Z,81.72
2018-09-12T00:45:05.823Z,82.56
2018-09-12T00:47:34.216Z,82.23
2018-09-12T00:50:03.154Z,81.34
2018-09-12T00:52:31.609Z,81.69
2018-09-12T00:55:00.336Z,82.10
2018-09-12T00:57:28.710Z,82.59
2018-09-12T00:59:57.159Z,82.04
2018-09-12T01:02:25.639Z,81.48
2018-09-12T01:04:55.088Z,81.61
2018-09-12T01:07:23.568Z,82.14
2018-09-12T01:09:51.939Z,81.91
2018-09-12T01:12:20.326Z,82.37
2018-09-12T01:14:48.712Z,82.48
2018-09-12T01:17:17.216Z,82.80
2018-09-12T01:19:46.248Z,82.89
2018-09-12T01:22:15.208Z,82.74
2018-09-12T01:24:43.632Z,82.66
2018-09-12T01:27:12.007Z,83.36
2018-09-12T01:29:40.418Z,82.63
2018-09-12T01:32:09.488Z,83.20
2018-09-12T01:34:37.905Z,82.10
2018-09-12T01:37:06.336Z,83.07
2018-09-12T01:39:34.760Z,83.17
2018-09-12T01:42:03.146Z,83.10
2018-09-12T01:44:31.921Z,82.77
2018-09-12T01:47:00.356Z,83.27
2018-09-12T01:49:28.787Z,83.32
2018-09-12T01:51:57.186Z,82.93
2018-09-12T01:54:25.677Z,83.01
2018-09-12T01:56:54.052Z,82.60
2018-09-12T01:59:22.497Z,82.41
2018-09-12T02:01:50.905Z,82.88
2018-09-12T02:04:19.288Z,82.11
2018-09-12T02:06:47.696Z,83.41
2018-09-12T02:09:16.289Z,82.38
2018-09-12T02:11:44.709Z,83.26
2018-09-12T02:14:13.120Z,83.51
2018-09-12T02:16:41.556Z,83.19
2018-09-12T02:19:09.964Z,83.01
2018-09-12T02:21:38.360Z,83.07
2018-09-12T02:24:06.470Z,83.70
2018-09-12T02:26:34.995Z,83.38
2018-09-12T02:29:03.456Z,83.33
2018-09-12T02:31:31.833Z,83.29
2018-09-12T02:34:00.266Z,83.21
2018-09-12T02:36:29.751Z,84.19
2018-09-12T02:38:59.572Z,83.44
2018-09-12T02:41:28.036Z,84.04
2018-09-12T02:43:56.448Z,83.27
2018-09-12T02:46:24.871Z,83.52
2018-09-12T02:48:53.453Z,84.44
2018-09-12T02:51:21.821Z,84.19
2018-09-12T02:53:50.228Z,83.36
2018-09-12T02:56:19.111Z,83.32
2018-09-12T02:58:48.928Z,83.28
2018-09-12T03:01:19.192Z,83.53
2018-09-12T03:03:47.603Z,83.30
2018-09-12T03:06:16.008Z,84.00
2018-09-12T03:08:44.409Z,83.38
2018-09-12T03:11:12.842Z,83.69
2018-09-12T03:13:41.228Z,83.73
2018-09-12T03:16:09.677Z,83.68
2018-09-12T03:18:38.127Z,83.79
2018-09-12T03:21:07.654Z,83.03
2018-09-12T03:23:35.942Z,83.66
2018-09-12T03:26:04.323Z,83.93
2018-09-12T03:28:32.758Z,83.42
2018-09-12T03:31:01.156Z,84.21
2018-09-12T03:33:29.563Z,84.63
2018-09-12T03:35:57.982Z,83.87
2018-09-12T03:38:26.381Z,84.34
2018-09-12T03:40:54.772Z,84.90
2018-09-12T03:43:23.177Z,84.34
2018-09-12T03:45:51.557Z,84.76
2018-09-12T03:48:19.970Z,84.26
2018-09-12T03:50:48.656Z,83.38
2018-09-12T03:53:17.095Z,83.97
2018-09-12T03:55:45.520Z,84.79
2018-09-12T03:58:13.981Z,84.49
2018-09-12T04:00:42.389Z,84.59
2018-09-12T04:03:10.797Z,84.66
2018-09-12T04:05:39.256Z,84.16
2018-09-12T04:08:07.639Z,84.48
2018-09-12T04:10:36.700Z,84.48
2018-09-12T04:13:05.134Z,84.98
2018-09-12T04:15:33.523Z,84.49
2018-09-12T04:18:01.951Z,84.52
2018-09-12T04:20:30.349Z,85.02
2018-09-12T04:22:58.802Z,84.82
2018-09-12T04:25:27.213Z,84.93
2018-09-12T04:27:56.076Z,84.68
2018-09-12T04:30:24.633Z,85.25
2018-09-12T04:32:52.992Z,84.15
2018-09-12T04:35:21.395Z,84.30
2018-09-12T04:37:49.837Z,84.42
2018-09-12T04:40:18.254Z,84.67
2018-09-12T04:42:46.703Z,85.04
2018-09-12T04:45:15.097Z,84.71
2018-09-12T04:47:43.488Z,84.58
2018-09-12T04:50:11.855Z,84.08
2018-09-12T04:52:40.289Z,85.20
2018-09-12T04:55:09.560Z,84.87
2018-09-12T04:57:37.920Z,84.69
2018-09-12T05:00:06.471Z,84.45
2018-09-12T05:02:35.050Z,85.32
2018-09-12T05:05:03.456Z,85.07
2018-09-12T05:07:32.033Z,84.71
2018-09-12T05:10:00.465Z,84.72
2018-09-12T05:12:28.848Z,85.57
2018-09-12T05:14:57.459Z,84.64
2018-09-12T05:17:25.856Z,84.91
2018-09-12T05:19:54.252Z,84.71
2018-09-12T05:22:22.617Z,84.72
2018-09-12T05:24:51.417Z,85.06
2018-09-12T05:27:19.814Z,85.75
2018-09-12T05:29:48.312Z,86.06
2018-09-12T05:32:16.692Z,85.06
2018-09-12T05:34:45.095Z,85.51
2018-09-12T05:37:13.723Z,85.48
2018-09-12T05:39:42.641Z,84.87
2018-09-12T05:42:11.028Z,85.41
2018-09-12T05:44:40.407Z,86.10
2018-09-12T05:47:08.832Z,85.21
2018-09-12T05:49:37.263Z,85.43
2018-09-12T05:52:05.809Z,86.05
2018-09-12T05:54:34.239Z,85.69
2018-09-12T05:57:03.451Z,85.91
2018-09-12T05:59:31.864Z,85.91
2018-09-12T06:02:00.265Z,85.78
2018-09-12T06:04:28.682Z,84.84
2018-09-12T06:06:57.145Z,85.13
2018-09-12T06:09:25.561Z,85.20
2018-09-12T06:11:53.993Z,85.72
2018-09-12T06:14:22.433Z,85.67
2018-09-12T06:16:50.802Z,85.53
2018-09-12T06:19:19.240Z,85.20
2018-09-12T06:21:47.648Z,84.89
2018-09-12T06:24:16.065Z,84.88
2018-09-12T06:26:44.562Z,84.48
2018-09-12T06:29:12.964Z,84.70
2018-09-12T06:31:41.340Z,85.83
2018-09-12T06:34:10.320Z,84.97
2018-09-12T06:36:38.786Z,85.32
2018-09-12T06:39:09.634Z,84.58
2018-09-12T06:41:38.064Z,85.07
2018-09-12T06:44:06.560Z,84.16
2018-09-12T06:46:35.112Z,83.78
2018-09-12T06:49:04.681Z,83.85
2018-09-12T06:51:33.186Z,83.81
2018-09-12T06:54:01.710Z,83.44
2018-09-12T06:56:30.202Z,84.14
2018-09-12T06:58:58.663Z,83.66
2018-09-12T07:01:27.064Z,83.31
2018-09-12T07:03:55.427Z,83.44
2018-09-12T07:06:23.954Z,83.42
2018-09-12T07:08:52.358Z,82.71
2018-09-12T07:11:20.767Z,83.43
2018-09-12T07:13:49.167Z,82.34
2018-09-12T07:16:17.563Z,81.85
2018-09-12T07:18:45.978Z,81.84
2018-09-12T07:21:14.432Z,81.22
2018-09-12T07:23:42.840Z,81.70
2018-09-12T07:26:11.257Z,80.90
2018-09-12T07:28:39.600Z,81.08
2018-09-12T07:31:08.036Z,81.03
2018-09-12T07:33:36.504Z,81.24
2018-09-12T07:36:04.964Z,81.35
2018-09-12T07:38:33.381Z,80.08
2018-09-12T07:41:01.846Z,81.44
2018-09-12T07:43:30.240Z,81.85
2018-09-12T07:45:58.689Z,81.68
2018-09-12T07:48:27.115Z,80.84
2018-09-12T07:50:57.032Z,80.47
2018-09-12T07:53:25.440Z,81.04
2018-09-12T07:55:53.969Z,81.50
2018-09-12T07:58:22.332Z,81.00
2018-09-12T08:00:50.759Z,80.24
2018-09-12T08:03:19.197Z,80.22
2018-09-12T08:05:47.621Z,80.30
2018-09-12T08:08:16.042Z,80.89
2018-09-12T08:10:44.464Z,80.67
2018-09-12T08:13:12.885Z,80.86
2018-09-12T08:15:41.413Z,81.13
2018-09-12T08:18:09.788Z,80.51
2018-09-12T08:20:38.281Z,79.27
2018-09-12T08:23:06.919Z,80.33
2018-09-12T08:25:35.310Z,80.14
2018-09-12T08:28:03.756Z,79.95
2018-09-12T08:30:32.829Z,80.36
2018-09-12T08:33:02.139Z,80.72
2018-09-12T08:35:31.301Z,81.68
2018-09-12T08:37:59.686Z,81.43
2018-09-12T08:40:28.074Z,81.28
2018-09-12T08:42:56.484Z,81.29
2018-09-12T08:45:24.944Z,81.45
2018-09-12T08:47:53.443Z,82.53
2018-09-12T08:50:23.999Z,82.56
2018-09-12T08:52:53.614Z,82.32
2018-09-12T08:55:22.035Z,82.61
2018-09-12T08:57:50.531Z,82.90
2018-09-12T09:00:19.635Z,82.96
2018-09-12T09:02:48.041Z,82.71
2018-09-12T09:05:16.544Z,82.02
2018-09-12T09:07:44.992Z,82.56
2018-09-12T09:10:13.470Z,81.70
2018-09-12T09:12:41.905Z,81.70
2018-09-12T09:15:10.300Z,80.96
2018-09-12T09:17:38.701Z,80.62
2018-09-12T09:20:07.221Z,80.85
2018-09-12T09:22:35.664Z,80.55
2018-09-12T09:25:04.355Z,80.75
2018-09-12T09:27:32.817Z,80.72
2018-09-12T09:30:01.324Z,79.42
2018-09-12T09:32:29.704Z,80.35
2018-09-12T09:34:58.148Z,79.56
2018-09-12T09:37:26.475Z,79.17
2018-09-12T09:39:54.903Z,78.92
2018-09-12T09:42:23.349Z,77.65
2018-09-12T09:44:52.214Z,78.65
2018-09-12T09:47:20.649Z,79.26
2018-09-12T09:49:51.724Z,79.48
2018-09-12T09:52:20.141Z,78.46
2018-09-12T09:54:48.607Z,77.38
2018-09-12T09:57:17.005Z,77.53
2018-09-12T09:59:45.509Z,76.98
2018-09-12T10:03:22.940Z,77.48
2018-09-12T10:05:56.681Z,77.82
2018-09-12T10:08:28.746Z,76.73
2018-09-12T10:10:57.525Z,77.60
2018-09-12T10:13:25.996Z,77.40
2018-09-12T10:15:54.465Z,77.78
2018-09-12T10:18:22.896Z,76.82
2018-09-12T10:20:51.348Z,75.96
2018-09-12T10:23:21.827Z,75.34
2018-09-12T10:25:50.427Z,75.39
2018-09-12T10:28:19.008Z,76.51
2018-09-12T10:30:47.456Z,75.47
2018-09-12T10:33:16.089Z,74.49
2018-09-12T10:35:44.538Z,73.86
2018-09-12T10:38:12.916Z,73.21
2018-09-12T10:40:41.706Z,74.21
2018-09-12T10:43:10.309Z,73.70
2018-09-12T10:45:38.728Z,72.87
2018-09-12T10:48:07.376Z,72.04
2018-09-12T10:50:35.792Z,72.40
2018-09-12T10:53:04.216Z,72.91
2018-09-12T10:55:32.890Z,72.26
2018-09-12T10:58:01.315Z,71.67
2018-09-12T11:00:29.828Z,72.19
2018-09-12T11:02:58.240Z,71.28
2018-09-12T11:05:26.744Z,71.90
2018-09-12T11:07:55.165Z,71.51
2018-09-12T11:10:24.132Z,71.01
2018-09-12T11:12:52.526Z,72.37
2018-09-12T11:15:20.919Z,72.58
2018-09-12T11:17:49.352Z,72.09
2018-09-12T11:20:17.800Z,71.52
2018-09-12T11:22:46.244Z,69.79
2018-09-12T11:25:14.642Z,70.48
2018-09-12T11:27:43.062Z,70.28
2018-09-12T11:30:11.500Z,71.02
2018-09-12T11:32:39.947Z,71.09
2018-09-12T11:35:09.192Z,71.68
2018-09-12T11:37:37.577Z,71.58
2018-09-12T11:40:06.037Z,70.37
2018-09-12T11:42:34.420Z,69.21
2018-09-12T11:45:03.326Z,70.34
2018-09-12T11:47:31.762Z,71.36
2018-09-12T11:50:01.970Z,69.90
2018-09-12T11:52:31.485Z,69.32
2018-09-12T11:55:01.135Z,69.15
2018-09-12T11:57:30.295Z,67.77
2018-09-12T11:59:58.873Z,69.10
2018-09-12T12:02:27.332Z,67.33
2018-09-12T12:04:55.741Z,67.46
2018-09-12T12:07:24.186Z,67.47
2018-09-12T12:09:52.683Z,66.41
2018-09-12T12:12:21.105Z,65.99
2018-09-12T12:14:49.607Z,65.35
2018-09-12T12:17:18.657Z,66.95
2018-09-12T12:19:47.277Z,65.99
2018-09-12T12:22:15.685Z,64.22
2018-09-12T12:24:45.075Z,64.53
2018-09-12T12:27:13.499Z,64.38
2018-09-12T12:29:41.944Z,65.40
2018-09-12T12:32:10.339Z,64.88
2018-09-12T12:34:38.818Z,64.62
2018-09-12T12:37:07.229Z,64.99
2018-09-12T12:39:35.580Z,65.19
2018-09-12T12:42:04.030Z,65.19
2018-09-12T12:44:32.796Z,66.08
2018-09-12T12:47:01.506Z,65.97
2018-09-12T12:49:30.049Z,64.32
2018-09-12T12:51:59.261Z,63.77
2018-09-12T12:54:27.709Z,64.51
2018-09-12T12:56:56.255Z,65.40
2018-09-12T12:59:24.693Z,65.62
2018-09-12T13:01:53.088Z,66.83
2018-09-12T13:04:21.621Z,67.97
2018-09-12T13:06:50.043Z,68.87
2018-09-12T13:09:18.481Z,69.88
2018-09-12T13:11:46.929Z,68.74
2018-09-12T13:14:15.375Z,69.91
2018-09-12T13:16:44.045Z,69.36
2018-09-12T13:19:12.529Z,69.51
2018-09-12T13:21:41.066Z,70.88
2018-09-12T13:24:09.359Z,70.29
2018-09-12T13:26:37.792Z,70.61
2018-09-12T13:29:06.300Z,69.95
2018-09-12T13:31:34.787Z,70.67
2018-09-12T13:34:03.189Z,70.57
2018-09-12T13:36:31.631Z,70.54
2018-09-12T13:39:00.105Z,71.95
2018-09-12T13:41:28.530Z,72.05
2018-09-12T13:43:56.962Z,73.09
2018-09-12T13:46:25.398Z,73.51
2018-09-12T13:48:53.820Z,74.58
2018-09-12T13:51:22.250Z,74.38
2018-09-12T13:53:50.680Z,75.08
2018-09-12T13:56:19.305Z,75.04
2018-09-12T13:58:47.753Z,75.87
2018-09-12T14:01:16.204Z,75.86
2018-09-12T14:03:44.922Z,76.07
2018-09-12T14:06:13.426Z,76.63
2018-09-12T14:08:41.931Z,75.73
2018-09-12T14:11:10.347Z,76.39
2018-09-12T14:13:38.757Z,76.89
2018-09-12T14:16:07.491Z,77.24
2018-09-12T14:18:36.964Z,77.05
2018-09-12T14:21:05.378Z,77.58
2018-09-12T14:23:33.827Z,76.79
2018-09-12T14:26:02.244Z,77.30
2018-09-12T14:28:30.729Z,77.32
2018-09-12T14:30:59.295Z,76.62
2018-09-12T14:33:27.766Z,77.21
2018-09-12T14:35:56.224Z,76.45
2018-09-12T14:38:25.488Z,76.30
2018-09-12T14:40:53.885Z,76.87
2018-09-12T14:43:22.273Z,77.06
2018-09-12T14:45:50.726Z,77.65
2018-09-12T14:48:19.126Z,76.00
2018-09-12T14:50:47.543Z,76.29
2018-09-12T14:53:15.917Z,76.61
2018-09-12T14:55:44.458Z,77.63
2018-09-12T14:58:12.853Z,77.19
2018-09-12T15:00:41.541Z,77.31
2018-09-12T15:03:10.094Z,75.96
2018-09-12T15:05:38.582Z,76.74
2018-09-12T15:08:07.024Z,77.92
2018-09-12T15:10:35.492Z,78.12
2018-09-12T15:13:03.885Z,77.64
2018-09-12T15:15:32.321Z,78.29
2018-09-12T15:18:01.753Z,78.57
2018-09-12T15:20:30.176Z,78.09
2018-09-12T15:22:58.684Z,77.80
2018-09-12T15:25:27.183Z,77.42
2018-09-12T15:27:55.631Z,77.26
2018-09-12T15:30:24.064Z,78.87
2018-09-12T15:32:52.567Z,78.69
2018-09-12T15:35:21.128Z,77.92
2018-09-12T15:37:49.557Z,78.43
2018-09-12T15:40:18.001Z,77.92
2018-09-12T15:42:46.449Z,78.64
2018-09-12T15:45:14.940Z,78.01
2018-09-12T15:47:43.358Z,78.28
2018-09-12T15:50:11.878Z,77.71
2018-09-12T15:52:40.929Z,76.53
2018-09-12T15:55:09.450Z,76.88
2018-09-12T15:57:37.855Z,77.05
2018-09-12T16:00:06.427Z,75.83
2018-09-12T16:02:34.928Z,75.95
2018-09-12T16:05:03.701Z,76.75
2018-09-12T16:07:32.315Z,77.68
2018-09-12T16:10:00.840Z,77.16
2018-09-12T16:12:29.274Z,75.46
2018-09-12T16:14:58.093Z,75.92
2018-09-12T16:17:26.502Z,75.74
2018-09-12T16:19:55.108Z,75.88
2018-09-12T16:22:23.688Z,75.59
2018-09-12T16:24:52.159Z,76.17
2018-09-12T16:27:21.800Z,75.51
2018-09-12T16:29:50.265Z,76.02
2018-09-12T16:32:18.768Z,74.13
2018-09-12T16:34:47.248Z,74.90
2018-09-12T16:37:15.631Z,74.99
2018-09-12T16:39:44.017Z,75.82
2018-09-12T16:42:12.517Z,76.40
2018-09-12T16:44:40.953Z,75.09
2018-09-12T16:47:09.381Z,75.21
2018-09-12T16:49:37.840Z,75.72
2018-09-12T16:52:06.303Z,76.88
2018-09-12T16:54:34.747Z,75.71
2018-09-12T16:57:03.228Z,76.37
2018-09-12T16:59:31.654Z,76.92
2018-09-12T17:02:00.061Z,77.62
2018-09-12T17:04:28.486Z,77.34
2018-09-12T17:06:56.897Z,76.70
2018-09-12T17:09:25.370Z,77.25
2018-09-12T17:11:53.855Z,77.64
2018-09-12T17:14:22.887Z,77.67
2018-09-12T17:16:51.295Z,77.45
2018-09-12T17:19:20.862Z,77.87
2018-09-12T17:21:49.645Z,78.49
2018-09-12T17:24:18.016Z,77.84
2018-09-12T17:26:46.446Z,77.73
2018-09-12T17:29:14.920Z,78.39
2018-09-12T17:31:43.375Z,78.00
2018-09-12T17:34:11.809Z,77.83
2018-09-12T17:36:40.315Z,78.64
2018-09-12T17:39:09.687Z,78.00
2018-09-12T17:41:38.108Z,78.56
2018-09-12T17:44:06.619Z,78.18
2018-09-12T17:46:35.136Z,78.22
2018-09-12T17:49:03.694Z,78.91
2018-09-12T17:51:32.496Z,78.85
2018-09-12T17:54:01.492Z,79.28
2018-09-12T17:56:29.968Z,79.51
2018-09-12T17:58:58.417Z,79.37
2018-09-12T18:01:26.862Z,79.49
2018-09-12T18:03:55.374Z,79.47
2018-09-12T18:06:23.812Z,78.85
2018-09-12T18:08:52.229Z,80.14
2018-09-12T18:11:21.280Z,79.75
2018-09-12T18:13:49.772Z,79.81
2018-09-12T18:16:18.241Z,80.52
2018-09-12T18:18:46.848Z,80.57
2018-09-12T18:21:15.357Z,81.12
2018-09-12T18:23:44.446Z,80.07
2018-09-12T18:26:12.912Z,80.43
2018-09-12T18:28:41.350Z,80.98
2018-09-12T18:31:09.813Z,80.61
2018-09-12T18:33:38.241Z,80.97
2018-09-12T18:36:06.895Z,79.97
2018-09-12T18:38:35.481Z,80.50
2018-09-12T18:41:03.908Z,80.85
2018-09-12T18:43:32.410Z,79.73
2018-09-12T18:46:00.852Z,80.23
2018-09-12T18:48:29.310Z,80.44
2018-09-12T18:50:57.842Z,80.91
2018-09-12T18:53:26.265Z,81.26
2018-09-12T18:55:54.778Z,80.91
2018-09-12T18:58:23.250Z,80.46
2018-09-12T19:00:51.656Z,79.94
2018-09-12T19:03:20.140Z,80.98
2018-09-12T19:05:49.288Z,80.12
2018-09-12T19:08:17.738Z,79.97
2018-09-12T19:10:46.165Z,80.00
2018-09-12T19:13:14.658Z,79.44
2018-09-12T19:15:43.037Z,79.04
2018-09-12T19:18:11.519Z,79.90
2018-09-12T19:20:39.900Z,80.21
2018-09-12T19:23:08.403Z,79.78
2018-09-12T19:25:36.816Z,80.25
2018-09-12T19:28:05.298Z,78.95
2018-09-12T19:30:34.674Z,80.20
2018-09-12T19:33:03.076Z,79.51
2018-09-12T19:35:31.513Z,79.11
2018-09-12T19:37:59.911Z,80.55
2018-09-12T19:40:28.349Z,79.51
2018-09-12T19:42:56.787Z,79.82
2018-09-12T19:45:25.244Z,80.37
2018-09-12T19:47:53.719Z,79.65
2018-09-12T19:50:22.341Z,79.64
2018-09-12T19:52:50.777Z,79.42
2018-09-12T19:55:19.545Z,80.38
2018-09-12T19:57:48.008Z,80.00
2018-09-12T20:00:18.051Z,80.66
2018-09-12T20:02:46.557Z,79.99
2018-09-12T20:05:15.046Z,79.49
2018-09-12T20:07:43.556Z,80.66
2018-09-12T20:10:12.021Z,80.76
2018-09-12T20:12:40.520Z,80.45
2018-09-12T20:15:08.984Z,80.45
2018-09-12T20:17:37.983Z,80.62
2018-09-12T20:20:06.810Z,79.77
2018-09-12T20:22:35.320Z,80.66
2018-09-12T20:25:03.785Z,79.53
2018-09-12T20:27:32.248Z,80.38
2018-09-12T20:30:00.719Z,80.74
2018-09-12T20:32:29.926Z,80.25
2018-09-12T20:34:58.380Z,81.26
2018-09-12T20:37:26.784Z,80.22
2018-09-12T20:39:55.192Z,80.98
2018-09-12T20:42:23.586Z,81.08
2018-09-12T20:44:51.995Z,80.65
2018-09-12T20:47:20.440Z,80.66
2018-09-12T20:49:48.955Z,81.80
2018-09-12T20:52:18.324Z,81.00
2018-09-12T20:54:46.776Z,80.58
2018-09-12T20:57:16.129Z,81.54
2018-09-12T20:59:45.520Z,81.73
2018-09-12T21:02:13.962Z,82.19
2018-09-12T21:04:42.381Z,82.45
2018-09-12T21:07:10.850Z,82.84
2018-09-12T21:09:39.329Z,83.04
2018-09-12T21:12:08.080Z,83.11
2018-09-12T21:14:36.563Z,83.74
2018-09-12T21:17:05.011Z,83.72
2018-09-12T21:19:34.855Z,83.34
2018-09-12T21:22:03.289Z,84.23
2018-09-12T21:24:31.771Z,84.48
2018-09-12T21:27:01.167Z,84.45
2018-09-12T21:29:29.695Z,84.75
2018-09-12T21:31:58.111Z,84.69
2018-09-12T21:34:26.913Z,84.94
2018-09-12T21:36:56.205Z,85.71
2018-09-12T21:39:24.573Z,85.17
2018-09-12T21:41:57.168Z,85.47
2018-09-12T21:44:25.573Z,85.43
2018-09-12T21:46:53.957Z,85.10
2018-09-12T21:49:22.392Z,84.73
2018-09-12T21:51:52.719Z,84.72
2018-09-12T21:54:24.211Z,85.68
2018-09-12T21:56:52.814Z,85.05
2018-09-12T21:59:25.990Z,85.75
2018-09-12T22:01:54.846Z,85.39
2018-09-12T22:04:23.356Z,86.11
2018-09-12T22:06:51.786Z,85.32
2018-09-12T22:09:20.215Z,85.12
2018-09-12T22:11:48.697Z,85.42
2018-09-12T22:14:17.106Z,86.11
2018-09-12T22:16:45.571Z,85.85
2018-09-12T22:19:13.988Z,85.73
2018-09-12T22:21:42.397Z,85.37
2018-09-12T22:24:10.839Z,85.24
2018-09-12T22:26:39.645Z,85.74
2018-09-12T22:29:08.686Z,85.77
2018-09-12T22:31:37.048Z,85.59
2018-09-12T22:34:13.219Z,85.70
2018-09-12T22:36:44.840Z,86.11
2018-09-12T22:39:13.257Z,85.92
2018-09-12T22:41:41.684Z,87.01
2018-09-12T22:44:10.087Z,85.72
2018-09-12T22:46:38.560Z,86.66
2018-09-12T22:49:06.958Z,86.85
2018-09-12T22:51:35.354Z,86.28
2018-09-12T22:54:04.041Z,86.90
2018-09-12T22:56:32.423Z,86.98
2018-09-12T22:59:00.942Z,86.63
2018-09-12T23:01:30.327Z,87.11
2018-09-12T23:03:58.765Z,86.62
2018-09-12T23:06:27.186Z,86.58
2018-09-12T23:08:55.669Z,87.17
2018-09-12T23:11:24.086Z,87.29
2018-09-12T23:13:52.550Z,87.57
2018-09-12T23:16:20.916Z,86.99
2018-09-12T23:18:49.924Z,86.81
2018-09-12T23:21:18.333Z,87.82
2018-09-12T23:23:46.713Z,88.01
2018-09-12T23:26:15.152Z,88.66
2018-09-12T23:28:43.571Z,89.00
2018-09-12T23:31:12.007Z,88.64
2018-09-12T23:33:40.748Z,88.32
2018-09-12T23:36:09.143Z,88.72
2018-09-12T23:38:37.589Z,88.54
2018-09-12T23:41:06.357Z,88.33
2018-09-12T23:43:35.166Z,89.12
2018-09-12T23:46:03.559Z,89.17
2018-09-12T23:48:32.287Z,89.24
2018-09-12T23:51:00.695Z,88.69
2018-09-12T23:53:29.325Z,89.59
2018-09-12T23:55:57.748Z,88.98
2018-09-12T23:58:27.037Z,88.45
